sensor_id;sensor_type;location;lat;lon;timestamp;P1;durP1;ratioP1;P2;durP2;ratioP2
80384;SDS011;69702;44.618;33.604;2023-05-07T00:01:59;11.52;;;6.05;;
80384;SDS011;69702;44.618;33.604;2023-05-07T00:04:26;10.30;;;6.40;;
80384;SDS011;69702;44.618;33.604;2023-05-07T00:06:53;10.23;;;6.00;;
80384;SDS011;69702;44.618;33.604;2023-05-07T00:09:20;11.20;;;7.15;;
80384;SDS011;69702;44.618;33.604;2023-05-07T00:11:46;11.07;;;7.25;;
80384;SDS011;69702;44.618;33.604;2023-05-07T00:14:12;10.83;;;7.10;;
80384;SDS011;69702;44.618;33.604;2023-05-07T00:16:38;11.63;;;7.03;;
80384;SDS011;69702;44.618;33.604;2023-05-07T00:19:04;11.48;;;6.72;;
80384;SDS011;69702;44.618;33.604;2023-05-07T00:21:29;11.23;;;7.30;;
80384;SDS011;69702;44.618;33.604;2023-05-07T00:23:55;10.27;;;6.60;;
80384;SDS011;69702;44.618;33.604;2023-05-07T00:26:21;10.25;;;7.22;;
80384;SDS011;69702;44.618;33.604;2023-05-07T00:28:49;9.50;;;6.78;;
80384;SDS011;69702;44.618;33.604;2023-05-07T00:31:15;12.20;;;7.40;;
80384;SDS011;69702;44.618;33.604;2023-05-07T00:33:41;10.38;;;6.97;;
80384;SDS011;69702;44.618;33.604;2023-05-07T00:36:07;10.25;;;7.10;;
80384;SDS011;69702;44.618;33.604;2023-05-07T00:38:33;11.43;;;7.97;;
80384;SDS011;69702;44.618;33.604;2023-05-07T00:40:58;10.32;;;7.47;;
80384;SDS011;69702;44.618;33.604;2023-05-07T00:43:24;10.35;;;7.60;;
80384;SDS011;69702;44.618;33.604;2023-05-07T00:45:50;10.77;;;7.68;;
80384;SDS011;69702;44.618;33.604;2023-05-07T00:48:17;11.63;;;7.97;;
80384;SDS011;69702;44.618;33.604;2023-05-07T00:50:42;10.63;;;7.43;;
80384;SDS011;69702;44.618;33.604;2023-05-07T00:53:09;12.70;;;7.80;;
80384;SDS011;69702;44.618;33.604;2023-05-07T00:55:35;13.20;;;7.80;;
80384;SDS011;69702;44.618;33.604;2023-05-07T00:58:01;13.70;;;8.40;;
80384;SDS011;69702;44.618;33.604;2023-05-07T01:00:27;11.02;;;7.38;;
80384;SDS011;69702;44.618;33.604;2023-05-07T01:02:53;11.15;;;7.88;;
80384;SDS011;69702;44.618;33.604;2023-05-07T01:05:19;12.48;;;8.73;;
80384;SDS011;69702;44.618;33.604;2023-05-07T01:07:46;10.63;;;7.93;;
80384;SDS011;69702;44.618;33.604;2023-05-07T01:10:12;10.60;;;8.27;;
80384;SDS011;69702;44.618;33.604;2023-05-07T01:12:38;13.27;;;8.27;;
80384;SDS011;69702;44.618;33.604;2023-05-07T01:15:04;13.85;;;8.52;;
80384;SDS011;69702;44.618;33.604;2023-05-07T01:17:35;12.15;;;7.88;;
80384;SDS011;69702;44.618;33.604;2023-05-07T01:20:03;12.70;;;8.48;;
80384;SDS011;69702;44.618;33.604;2023-05-07T01:22:33;10.88;;;8.52;;
80384;SDS011;69702;44.618;33.604;2023-05-07T01:25:02;13.73;;;7.90;;
80384;SDS011;69702;44.618;33.604;2023-05-07T01:27:30;10.43;;;8.02;;
80384;SDS011;69702;44.618;33.604;2023-05-07T01:29:56;11.93;;;8.45;;
80384;SDS011;69702;44.618;33.604;2023-05-07T01:32:32;16.10;;;7.90;;
80384;SDS011;69702;44.618;33.604;2023-05-07T01:35:01;9.18;;;8.07;;
80384;SDS011;69702;44.618;33.604;2023-05-07T01:37:29;10.25;;;7.78;;
80384;SDS011;69702;44.618;33.604;2023-05-07T01:39:55;10.00;;;7.70;;
80384;SDS011;69702;44.618;33.604;2023-05-07T01:42:21;11.23;;;7.37;;
80384;SDS011;69702;44.618;33.604;2023-05-07T01:44:47;13.98;;;8.05;;
80384;SDS011;69702;44.618;33.604;2023-05-07T01:47:13;10.15;;;7.60;;
80384;SDS011;69702;44.618;33.604;2023-05-07T01:49:40;9.75;;;7.18;;
80384;SDS011;69702;44.618;33.604;2023-05-07T01:52:06;12.15;;;7.57;;
80384;SDS011;69702;44.618;33.604;2023-05-07T01:54:32;9.93;;;7.60;;
80384;SDS011;69702;44.618;33.604;2023-05-07T01:56:59;11.63;;;7.55;;
80384;SDS011;69702;44.618;33.604;2023-05-07T01:59:25;12.02;;;7.90;;
80384;SDS011;69702;44.618;33.604;2023-05-07T02:01:51;10.68;;;7.85;;
80384;SDS011;69702;44.618;33.604;2023-05-07T02:04:17;10.40;;;7.60;;
80384;SDS011;69702;44.618;33.604;2023-05-07T02:06:43;11.27;;;7.03;;
80384;SDS011;69702;44.618;33.604;2023-05-07T02:09:10;9.95;;;7.95;;
80384;SDS011;69702;44.618;33.604;2023-05-07T02:11:39;11.00;;;7.90;;
80384;SDS011;69702;44.618;33.604;2023-05-07T02:14:05;12.77;;;8.40;;
80384;SDS011;69702;44.618;33.604;2023-05-07T02:16:31;10.15;;;7.32;;
80384;SDS011;69702;44.618;33.604;2023-05-07T02:18:57;10.10;;;7.15;;
80384;SDS011;69702;44.618;33.604;2023-05-07T02:21:24;12.27;;;8.00;;
80384;SDS011;69702;44.618;33.604;2023-05-07T02:23:50;9.85;;;7.28;;
80384;SDS011;69702;44.618;33.604;2023-05-07T02:26:16;11.57;;;7.25;;
80384;SDS011;69702;44.618;33.604;2023-05-07T02:28:42;11.30;;;8.50;;
80384;SDS011;69702;44.618;33.604;2023-05-07T02:31:09;10.55;;;7.93;;
80384;SDS011;69702;44.618;33.604;2023-05-07T02:33:34;11.17;;;7.10;;
80384;SDS011;69702;44.618;33.604;2023-05-07T02:36:08;10.75;;;7.32;;
80384;SDS011;69702;44.618;33.604;2023-05-07T02:38:38;10.82;;;7.20;;
80384;SDS011;69702;44.618;33.604;2023-05-07T02:41:04;10.65;;;6.90;;
80384;SDS011;69702;44.618;33.604;2023-05-07T02:43:30;11.37;;;7.37;;
80384;SDS011;69702;44.618;33.604;2023-05-07T02:46:05;12.27;;;7.55;;
80384;SDS011;69702;44.618;33.604;2023-05-07T02:48:35;12.32;;;7.72;;
80384;SDS011;69702;44.618;33.604;2023-05-07T02:51:02;14.63;;;7.45;;
80384;SDS011;69702;44.618;33.604;2023-05-07T02:53:28;14.17;;;7.30;;
80384;SDS011;69702;44.618;33.604;2023-05-07T02:55:55;10.20;;;7.07;;
80384;SDS011;69702;44.618;33.604;2023-05-07T02:58:22;10.75;;;6.90;;
80384;SDS011;69702;44.618;33.604;2023-05-07T03:00:48;10.35;;;7.50;;
80384;SDS011;69702;44.618;33.604;2023-05-07T03:03:26;10.77;;;7.90;;
80384;SDS011;69702;44.618;33.604;2023-05-07T03:05:52;12.02;;;7.63;;
80384;SDS011;69702;44.618;33.604;2023-05-07T03:08:18;12.15;;;7.50;;
80384;SDS011;69702;44.618;33.604;2023-05-07T03:10:44;12.48;;;7.90;;
80384;SDS011;69702;44.618;33.604;2023-05-07T03:13:09;10.43;;;7.30;;
80384;SDS011;69702;44.618;33.604;2023-05-07T03:15:35;13.20;;;7.78;;
80384;SDS011;69702;44.618;33.604;2023-05-07T03:18:02;11.68;;;7.28;;
80384;SDS011;69702;44.618;33.604;2023-05-07T03:20:27;11.25;;;7.45;;
80384;SDS011;69702;44.618;33.604;2023-05-07T03:22:54;13.23;;;7.33;;
80384;SDS011;69702;44.618;33.604;2023-05-07T03:25:20;11.30;;;7.13;;
80384;SDS011;69702;44.618;33.604;2023-05-07T03:27:46;12.43;;;7.60;;
80384;SDS011;69702;44.618;33.604;2023-05-07T03:30:12;10.05;;;7.03;;
80384;SDS011;69702;44.618;33.604;2023-05-07T03:32:38;14.23;;;7.07;;
80384;SDS011;69702;44.618;33.604;2023-05-07T03:35:07;15.10;;;8.63;;
80384;SDS011;69702;44.618;33.604;2023-05-07T03:37:33;13.52;;;7.47;;
80384;SDS011;69702;44.618;33.604;2023-05-07T03:39:59;11.55;;;7.40;;
80384;SDS011;69702;44.618;33.604;2023-05-07T03:42:26;11.75;;;7.20;;
80384;SDS011;69702;44.618;33.604;2023-05-07T03:44:52;11.77;;;6.90;;
80384;SDS011;69702;44.618;33.604;2023-05-07T03:47:18;11.93;;;6.72;;
80384;SDS011;69702;44.618;33.604;2023-05-07T03:49:46;11.43;;;6.57;;
80384;SDS011;69702;44.618;33.604;2023-05-07T03:52:13;14.75;;;6.10;;
80384;SDS011;69702;44.618;33.604;2023-05-07T03:54:39;11.10;;;6.93;;
80384;SDS011;69702;44.618;33.604;2023-05-07T03:57:05;10.73;;;6.47;;
80384;SDS011;69702;44.618;33.604;2023-05-07T03:59:31;12.18;;;6.75;;
80384;SDS011;69702;44.618;33.604;2023-05-07T04:01:57;12.52;;;6.68;;
80384;SDS011;69702;44.618;33.604;2023-05-07T04:04:26;11.45;;;6.32;;
80384;SDS011;69702;44.618;33.604;2023-05-07T04:06:52;9.63;;;5.90;;
80384;SDS011;69702;44.618;33.604;2023-05-07T04:09:18;11.82;;;6.85;;
80384;SDS011;69702;44.618;33.604;2023-05-07T04:11:46;12.80;;;6.32;;
80384;SDS011;69702;44.618;33.604;2023-05-07T04:14:12;12.30;;;6.00;;
80384;SDS011;69702;44.618;33.604;2023-05-07T04:16:38;12.97;;;7.00;;
80384;SDS011;69702;44.618;33.604;2023-05-07T04:19:04;10.60;;;6.20;;
80384;SDS011;69702;44.618;33.604;2023-05-07T04:21:30;8.75;;;6.03;;
80384;SDS011;69702;44.618;33.604;2023-05-07T04:23:58;12.13;;;6.70;;
80384;SDS011;69702;44.618;33.604;2023-05-07T04:26:24;11.27;;;6.60;;
80384;SDS011;69702;44.618;33.604;2023-05-07T04:28:50;12.40;;;6.20;;
80384;SDS011;69702;44.618;33.604;2023-05-07T04:31:16;11.50;;;6.20;;
80384;SDS011;69702;44.618;33.604;2023-05-07T04:33:44;9.38;;;5.40;;
80384;SDS011;69702;44.618;33.604;2023-05-07T04:36:13;12.20;;;5.95;;
80384;SDS011;69702;44.618;33.604;2023-05-07T04:38:46;10.45;;;6.43;;
80384;SDS011;69702;44.618;33.604;2023-05-07T04:41:13;10.57;;;7.35;;
80384;SDS011;69702;44.618;33.604;2023-05-07T04:43:40;9.32;;;5.95;;
80384;SDS011;69702;44.618;33.604;2023-05-07T04:46:07;11.50;;;6.00;;
80384;SDS011;69702;44.618;33.604;2023-05-07T04:48:33;10.03;;;5.73;;
80384;SDS011;69702;44.618;33.604;2023-05-07T04:51:00;9.20;;;6.60;;
80384;SDS011;69702;44.618;33.604;2023-05-07T04:53:26;11.73;;;6.93;;
80384;SDS011;69702;44.618;33.604;2023-05-07T04:55:56;9.57;;;5.85;;
80384;SDS011;69702;44.618;33.604;2023-05-07T04:58:24;10.27;;;5.20;;
80384;SDS011;69702;44.618;33.604;2023-05-07T05:00:50;10.40;;;6.38;;
80384;SDS011;69702;44.618;33.604;2023-05-07T05:03:17;11.85;;;5.82;;
80384;SDS011;69702;44.618;33.604;2023-05-07T05:05:43;10.77;;;6.35;;
80384;SDS011;69702;44.618;33.604;2023-05-07T05:08:10;9.98;;;5.75;;
80384;SDS011;69702;44.618;33.604;2023-05-07T05:10:38;9.93;;;5.43;;
80384;SDS011;69702;44.618;33.604;2023-05-07T05:13:05;9.55;;;6.13;;
80384;SDS011;69702;44.618;33.604;2023-05-07T05:15:31;8.75;;;5.75;;
80384;SDS011;69702;44.618;33.604;2023-05-07T05:17:57;8.27;;;5.20;;
80384;SDS011;69702;44.618;33.604;2023-05-07T05:20:23;10.00;;;5.38;;
80384;SDS011;69702;44.618;33.604;2023-05-07T05:22:49;8.48;;;5.57;;
80384;SDS011;69702;44.618;33.604;2023-05-07T05:25:15;13.85;;;6.97;;
80384;SDS011;69702;44.618;33.604;2023-05-07T05:27:41;9.68;;;6.13;;
80384;SDS011;69702;44.618;33.604;2023-05-07T05:30:08;9.77;;;6.65;;
80384;SDS011;69702;44.618;33.604;2023-05-07T05:32:35;10.80;;;6.50;;
80384;SDS011;69702;44.618;33.604;2023-05-07T05:35:01;10.73;;;6.20;;
80384;SDS011;69702;44.618;33.604;2023-05-07T05:37:29;10.73;;;7.15;;
80384;SDS011;69702;44.618;33.604;2023-05-07T05:39:57;12.48;;;6.90;;
80384;SDS011;69702;44.618;33.604;2023-05-07T05:42:25;9.75;;;6.10;;
80384;SDS011;69702;44.618;33.604;2023-05-07T05:44:51;12.60;;;6.85;;
80384;SDS011;69702;44.618;33.604;2023-05-07T05:47:16;10.43;;;5.93;;
80384;SDS011;69702;44.618;33.604;2023-05-07T05:49:43;8.73;;;6.00;;
80384;SDS011;69702;44.618;33.604;2023-05-07T05:52:12;13.48;;;9.35;;
80384;SDS011;69702;44.618;33.604;2023-05-07T05:54:39;11.25;;;6.50;;
80384;SDS011;69702;44.618;33.604;2023-05-07T05:57:05;8.13;;;6.10;;
80384;SDS011;69702;44.618;33.604;2023-05-07T05:59:31;9.55;;;6.07;;
80384;SDS011;69702;44.618;33.604;2023-05-07T06:01:57;9.80;;;6.03;;
80384;SDS011;69702;44.618;33.604;2023-05-07T06:04:24;11.70;;;6.50;;
80384;SDS011;69702;44.618;33.604;2023-05-07T06:06:50;9.90;;;6.35;;
80384;SDS011;69702;44.618;33.604;2023-05-07T06:09:16;10.13;;;6.13;;
80384;SDS011;69702;44.618;33.604;2023-05-07T06:11:43;10.15;;;6.63;;
80384;SDS011;69702;44.618;33.604;2023-05-07T06:14:11;13.23;;;6.60;;
80384;SDS011;69702;44.618;33.604;2023-05-07T06:16:37;13.20;;;6.63;;
80384;SDS011;69702;44.618;33.604;2023-05-07T06:19:05;9.48;;;7.35;;
80384;SDS011;69702;44.618;33.604;2023-05-07T06:21:31;10.43;;;6.93;;
80384;SDS011;69702;44.618;33.604;2023-05-07T06:23:57;11.90;;;6.17;;
80384;SDS011;69702;44.618;33.604;2023-05-07T06:26:23;11.98;;;6.15;;
80384;SDS011;69702;44.618;33.604;2023-05-07T06:28:49;12.95;;;6.15;;
80384;SDS011;69702;44.618;33.604;2023-05-07T06:31:17;10.88;;;5.90;;
80384;SDS011;69702;44.618;33.604;2023-05-07T06:34:07;10.17;;;6.13;;
80384;SDS011;69702;44.618;33.604;2023-05-07T06:36:36;7.63;;;5.15;;
80384;SDS011;69702;44.618;33.604;2023-05-07T06:39:11;12.63;;;6.82;;
80384;SDS011;69702;44.618;33.604;2023-05-07T06:41:37;10.00;;;5.25;;
80384;SDS011;69702;44.618;33.604;2023-05-07T06:44:08;9.82;;;6.32;;
80384;SDS011;69702;44.618;33.604;2023-05-07T06:46:42;8.27;;;6.40;;
80384;SDS011;69702;44.618;33.604;2023-05-07T06:49:09;15.68;;;7.20;;
80384;SDS011;69702;44.618;33.604;2023-05-07T06:51:35;13.57;;;7.10;;
80384;SDS011;69702;44.618;33.604;2023-05-07T06:54:02;15.05;;;8.20;;
80384;SDS011;69702;44.618;33.604;2023-05-07T06:56:31;15.80;;;9.50;;
80384;SDS011;69702;44.618;33.604;2023-05-07T06:58:59;11.60;;;9.00;;
80384;SDS011;69702;44.618;33.604;2023-05-07T07:01:32;17.00;;;9.95;;
80384;SDS011;69702;44.618;33.604;2023-05-07T07:03:59;15.70;;;10.45;;
80384;SDS011;69702;44.618;33.604;2023-05-07T07:06:27;15.77;;;9.57;;
80384;SDS011;69702;44.618;33.604;2023-05-07T07:08:54;14.10;;;10.52;;
80384;SDS011;69702;44.618;33.604;2023-05-07T07:11:20;14.97;;;10.27;;
80384;SDS011;69702;44.618;33.604;2023-05-07T07:13:46;16.02;;;9.25;;
80384;SDS011;69702;44.618;33.604;2023-05-07T07:16:12;12.57;;;9.43;;
80384;SDS011;69702;44.618;33.604;2023-05-07T07:18:38;15.77;;;10.80;;
80384;SDS011;69702;44.618;33.604;2023-05-07T07:21:04;13.17;;;8.60;;
80384;SDS011;69702;44.618;33.604;2023-05-07T07:23:30;15.43;;;8.80;;
80384;SDS011;69702;44.618;33.604;2023-05-07T07:25:57;14.57;;;9.38;;
80384;SDS011;69702;44.618;33.604;2023-05-07T07:28:23;17.45;;;9.38;;
80384;SDS011;69702;44.618;33.604;2023-05-07T07:30:49;19.05;;;13.75;;
80384;SDS011;69702;44.618;33.604;2023-05-07T07:33:16;11.47;;;8.37;;
80384;SDS011;69702;44.618;33.604;2023-05-07T07:35:42;14.90;;;11.23;;
80384;SDS011;69702;44.618;33.604;2023-05-07T07:38:09;15.02;;;8.50;;
80384;SDS011;69702;44.618;33.604;2023-05-07T07:40:35;27.83;;;18.35;;
80384;SDS011;69702;44.618;33.604;2023-05-07T07:43:02;18.02;;;11.75;;
80384;SDS011;69702;44.618;33.604;2023-05-07T07:45:28;14.20;;;10.00;;
80384;SDS011;69702;44.618;33.604;2023-05-07T07:47:54;15.15;;;8.60;;
80384;SDS011;69702;44.618;33.604;2023-05-07T07:50:21;15.35;;;9.20;;
80384;SDS011;69702;44.618;33.604;2023-05-07T07:52:48;14.80;;;9.40;;
80384;SDS011;69702;44.618;33.604;2023-05-07T07:55:15;11.85;;;8.45;;
80384;SDS011;69702;44.618;33.604;2023-05-07T07:57:49;11.87;;;8.27;;
80384;SDS011;69702;44.618;33.604;2023-05-07T08:00:16;13.43;;;8.90;;
80384;SDS011;69702;44.618;33.604;2023-05-07T08:02:42;14.07;;;7.20;;
80384;SDS011;69702;44.618;33.604;2023-05-07T08:05:10;13.43;;;7.00;;
80384;SDS011;69702;44.618;33.604;2023-05-07T08:07:36;18.48;;;10.52;;
80384;SDS011;69702;44.618;33.604;2023-05-07T08:10:02;14.80;;;7.70;;
80384;SDS011;69702;44.618;33.604;2023-05-07T08:12:29;11.95;;;6.90;;
80384;SDS011;69702;44.618;33.604;2023-05-07T08:14:55;13.32;;;7.82;;
80384;SDS011;69702;44.618;33.604;2023-05-07T08:17:21;13.63;;;7.35;;
80384;SDS011;69702;44.618;33.604;2023-05-07T08:19:48;10.85;;;7.47;;
80384;SDS011;69702;44.618;33.604;2023-05-07T08:22:15;10.57;;;7.03;;
80384;SDS011;69702;44.618;33.604;2023-05-07T08:24:41;11.23;;;6.90;;
80384;SDS011;69702;44.618;33.604;2023-05-07T08:27:08;9.30;;;7.10;;
80384;SDS011;69702;44.618;33.604;2023-05-07T08:29:34;14.13;;;6.78;;
80384;SDS011;69702;44.618;33.604;2023-05-07T08:32:01;10.52;;;6.45;;
80384;SDS011;69702;44.618;33.604;2023-05-07T08:34:27;9.83;;;6.40;;
80384;SDS011;69702;44.618;33.604;2023-05-07T08:36:55;10.90;;;6.70;;
80384;SDS011;69702;44.618;33.604;2023-05-07T08:39:23;8.60;;;5.70;;
80384;SDS011;69702;44.618;33.604;2023-05-07T08:41:52;10.27;;;6.35;;
80384;SDS011;69702;44.618;33.604;2023-05-07T08:44:26;13.55;;;7.22;;
80384;SDS011;69702;44.618;33.604;2023-05-07T08:46:56;11.18;;;7.07;;
80384;SDS011;69702;44.618;33.604;2023-05-07T08:49:24;9.80;;;7.43;;
80384;SDS011;69702;44.618;33.604;2023-05-07T08:51:51;11.05;;;8.02;;
80384;SDS011;69702;44.618;33.604;2023-05-07T08:54:18;11.10;;;7.50;;
80384;SDS011;69702;44.618;33.604;2023-05-07T08:56:46;11.85;;;7.68;;
80384;SDS011;69702;44.618;33.604;2023-05-07T08:59:12;12.23;;;9.00;;
80384;SDS011;69702;44.618;33.604;2023-05-07T09:01:38;13.73;;;8.68;;
80384;SDS011;69702;44.618;33.604;2023-05-07T09:04:05;13.48;;;8.80;;
80384;SDS011;69702;44.618;33.604;2023-05-07T09:06:33;14.23;;;10.07;;
80384;SDS011;69702;44.618;33.604;2023-05-07T09:09:00;13.77;;;9.80;;
80384;SDS011;69702;44.618;33.604;2023-05-07T09:11:29;16.20;;;9.95;;
80384;SDS011;69702;44.618;33.604;2023-05-07T09:13:58;13.05;;;9.40;;
80384;SDS011;69702;44.618;33.604;2023-05-07T09:16:33;13.82;;;10.27;;
80384;SDS011;69702;44.618;33.604;2023-05-07T09:18:59;12.48;;;8.43;;
80384;SDS011;69702;44.618;33.604;2023-05-07T09:21:27;13.25;;;9.30;;
80384;SDS011;69702;44.618;33.604;2023-05-07T09:23:55;13.32;;;8.63;;
80384;SDS011;69702;44.618;33.604;2023-05-07T09:26:27;12.00;;;8.45;;
80384;SDS011;69702;44.618;33.604;2023-05-07T09:28:54;11.65;;;7.95;;
80384;SDS011;69702;44.618;33.604;2023-05-07T09:31:20;12.65;;;8.35;;
80384;SDS011;69702;44.618;33.604;2023-05-07T09:33:49;12.38;;;8.38;;
80384;SDS011;69702;44.618;33.604;2023-05-07T09:36:16;11.05;;;7.15;;
80384;SDS011;69702;44.618;33.604;2023-05-07T09:38:43;11.55;;;8.20;;
80384;SDS011;69702;44.618;33.604;2023-05-07T09:41:11;10.98;;;7.38;;
80384;SDS011;69702;44.618;33.604;2023-05-07T09:43:49;9.85;;;7.38;;
80384;SDS011;69702;44.618;33.604;2023-05-07T09:46:20;13.80;;;8.63;;
80384;SDS011;69702;44.618;33.604;2023-05-07T09:48:59;10.65;;;6.55;;
80384;SDS011;69702;44.618;33.604;2023-05-07T09:51:30;8.77;;;6.88;;
80384;SDS011;69702;44.618;33.604;2023-05-07T09:54:15;14.45;;;9.57;;
80384;SDS011;69702;44.618;33.604;2023-05-07T09:56:45;11.43;;;7.47;;
80384;SDS011;69702;44.618;33.604;2023-05-07T09:59:15;10.73;;;7.18;;
80384;SDS011;69702;44.618;33.604;2023-05-07T10:01:43;10.77;;;7.03;;
80384;SDS011;69702;44.618;33.604;2023-05-07T10:04:10;13.38;;;8.20;;
80384;SDS011;69702;44.618;33.604;2023-05-07T10:06:38;10.15;;;6.28;;
80384;SDS011;69702;44.618;33.604;2023-05-07T10:09:05;9.60;;;6.20;;
80384;SDS011;69702;44.618;33.604;2023-05-07T10:11:35;11.07;;;6.82;;
80384;SDS011;69702;44.618;33.604;2023-05-07T10:14:02;9.70;;;6.90;;
80384;SDS011;69702;44.618;33.604;2023-05-07T10:16:32;10.75;;;7.28;;
80384;SDS011;69702;44.618;33.604;2023-05-07T10:19:05;11.32;;;7.22;;
80384;SDS011;69702;44.618;33.604;2023-05-07T10:21:35;12.63;;;7.88;;
80384;SDS011;69702;44.618;33.604;2023-05-07T10:24:08;10.27;;;7.15;;
80384;SDS011;69702;44.618;33.604;2023-05-07T10:26:45;12.63;;;7.35;;
80384;SDS011;69702;44.618;33.604;2023-05-07T10:29:18;10.85;;;6.80;;
80384;SDS011;69702;44.618;33.604;2023-05-07T10:34:43;8.35;;;6.78;;
80384;SDS011;69702;44.618;33.604;2023-05-07T10:37:11;12.32;;;7.70;;
80384;SDS011;69702;44.618;33.604;2023-05-07T10:39:37;13.27;;;7.93;;
80384;SDS011;69702;44.618;33.604;2023-05-07T10:42:13;9.95;;;6.38;;
80384;SDS011;69702;44.618;33.604;2023-05-07T10:44:45;8.73;;;6.20;;
80384;SDS011;69702;44.618;33.604;2023-05-07T10:47:17;12.97;;;6.33;;
80384;SDS011;69702;44.618;33.604;2023-05-07T10:52:23;10.98;;;5.85;;
80384;SDS011;69702;44.618;33.604;2023-05-07T10:58:26;11.63;;;6.55;;
80384;SDS011;69702;44.618;33.604;2023-05-07T11:01:00;16.00;;;10.30;;
80384;SDS011;69702;44.618;33.604;2023-05-07T11:03:36;11.95;;;7.65;;
80384;SDS011;69702;44.618;33.604;2023-05-07T11:07:11;13.93;;;8.32;;
80384;SDS011;69702;44.618;33.604;2023-05-07T11:15:33;11.90;;;6.27;;
80384;SDS011;69702;44.618;33.604;2023-05-07T11:18:02;8.70;;;5.55;;
80384;SDS011;69702;44.618;33.604;2023-05-07T11:20:47;9.63;;;6.10;;
80384;SDS011;69702;44.618;33.604;2023-05-07T11:26:07;10.55;;;6.63;;
80384;SDS011;69702;44.618;33.604;2023-05-07T11:28:40;8.47;;;5.70;;
80384;SDS011;69702;44.618;33.604;2023-05-07T11:31:07;9.40;;;5.90;;
80384;SDS011;69702;44.618;33.604;2023-05-07T11:33:34;9.45;;;5.47;;
80384;SDS011;69702;44.618;33.604;2023-05-07T11:36:03;8.80;;;5.40;;
80384;SDS011;69702;44.618;33.604;2023-05-07T11:38:35;8.88;;;4.97;;
80384;SDS011;69702;44.618;33.604;2023-05-07T11:41:02;10.80;;;5.20;;
80384;SDS011;69702;44.618;33.604;2023-05-07T11:43:31;9.07;;;5.22;;
80384;SDS011;69702;44.618;33.604;2023-05-07T11:46:10;9.05;;;6.65;;
80384;SDS011;69702;44.618;33.604;2023-05-07T11:48:38;9.20;;;5.53;;
80384;SDS011;69702;44.618;33.604;2023-05-07T11:51:05;8.35;;;5.10;;
80384;SDS011;69702;44.618;33.604;2023-05-07T11:53:36;8.93;;;5.03;;
80384;SDS011;69702;44.618;33.604;2023-05-07T11:56:07;8.57;;;5.95;;
80384;SDS011;69702;44.618;33.604;2023-05-07T11:58:37;7.95;;;4.90;;
80384;SDS011;69702;44.618;33.604;2023-05-07T12:01:03;14.18;;;10.88;;
80384;SDS011;69702;44.618;33.604;2023-05-07T12:03:29;16.40;;;11.00;;
80384;SDS011;69702;44.618;33.604;2023-05-07T12:05:55;8.17;;;4.33;;
80384;SDS011;69702;44.618;33.604;2023-05-07T12:08:21;8.05;;;4.68;;
80384;SDS011;69702;44.618;33.604;2023-05-07T12:10:48;6.93;;;4.47;;
80384;SDS011;69702;44.618;33.604;2023-05-07T12:15:44;10.63;;;6.10;;
80384;SDS011;69702;44.618;33.604;2023-05-07T12:18:13;7.45;;;5.00;;
80384;SDS011;69702;44.618;33.604;2023-05-07T12:20:39;7.28;;;5.03;;
80384;SDS011;69702;44.618;33.604;2023-05-07T12:23:05;7.68;;;4.43;;
80384;SDS011;69702;44.618;33.604;2023-05-07T12:25:35;7.33;;;5.10;;
80384;SDS011;69702;44.618;33.604;2023-05-07T12:28:04;6.43;;;3.92;;
80384;SDS011;69702;44.618;33.604;2023-05-07T12:30:36;8.15;;;4.60;;
80384;SDS011;69702;44.618;33.604;2023-05-07T12:33:03;6.47;;;4.03;;
80384;SDS011;69702;44.618;33.604;2023-05-07T12:35:36;6.32;;;3.55;;
80384;SDS011;69702;44.618;33.604;2023-05-07T12:38:08;6.93;;;3.58;;
80384;SDS011;69702;44.618;33.604;2023-05-07T12:40:36;7.72;;;4.32;;
80384;SDS011;69702;44.618;33.604;2023-05-07T12:43:03;6.88;;;4.38;;
80384;SDS011;69702;44.618;33.604;2023-05-07T12:45:29;6.35;;;4.00;;
80384;SDS011;69702;44.618;33.604;2023-05-07T12:47:55;6.70;;;4.13;;
80384;SDS011;69702;44.618;33.604;2023-05-07T12:50:22;6.28;;;3.63;;
80384;SDS011;69702;44.618;33.604;2023-05-07T12:52:48;6.40;;;3.80;;
80384;SDS011;69702;44.618;33.604;2023-05-07T12:55:15;6.38;;;4.20;;
80384;SDS011;69702;44.618;33.604;2023-05-07T12:57:42;7.03;;;4.32;;
80384;SDS011;69702;44.618;33.604;2023-05-07T13:00:09;11.40;;;7.10;;
80384;SDS011;69702;44.618;33.604;2023-05-07T13:02:39;7.32;;;5.13;;
80384;SDS011;69702;44.618;33.604;2023-05-07T13:05:06;6.63;;;4.22;;
80384;SDS011;69702;44.618;33.604;2023-05-07T13:07:32;6.15;;;3.97;;
80384;SDS011;69702;44.618;33.604;2023-05-07T13:09:58;6.43;;;3.97;;
80384;SDS011;69702;44.618;33.604;2023-05-07T13:12:24;7.60;;;5.28;;
80384;SDS011;69702;44.618;33.604;2023-05-07T13:14:50;5.35;;;3.88;;
80384;SDS011;69702;44.618;33.604;2023-05-07T13:17:16;6.80;;;4.70;;
80384;SDS011;69702;44.618;33.604;2023-05-07T13:19:44;8.98;;;5.00;;
80384;SDS011;69702;44.618;33.604;2023-05-07T13:22:10;6.53;;;4.10;;
80384;SDS011;69702;44.618;33.604;2023-05-07T13:24:36;7.45;;;3.67;;
80384;SDS011;69702;44.618;33.604;2023-05-07T13:27:02;6.30;;;3.60;;
80384;SDS011;69702;44.618;33.604;2023-05-07T13:29:28;8.18;;;5.40;;
80384;SDS011;69702;44.618;33.604;2023-05-07T13:31:58;7.55;;;5.18;;
80384;SDS011;69702;44.618;33.604;2023-05-07T13:34:25;6.75;;;5.18;;
80384;SDS011;69702;44.618;33.604;2023-05-07T13:36:51;6.10;;;4.07;;
80384;SDS011;69702;44.618;33.604;2023-05-07T13:39:17;7.32;;;4.60;;
80384;SDS011;69702;44.618;33.604;2023-05-07T13:41:42;7.43;;;4.05;;
80384;SDS011;69702;44.618;33.604;2023-05-07T13:44:08;8.70;;;6.83;;
80384;SDS011;69702;44.618;33.604;2023-05-07T13:46:35;5.88;;;4.03;;
80384;SDS011;69702;44.618;33.604;2023-05-07T13:49:01;5.70;;;4.20;;
80384;SDS011;69702;44.618;33.604;2023-05-07T13:51:27;7.07;;;4.75;;
80384;SDS011;69702;44.618;33.604;2023-05-07T13:53:53;6.63;;;4.77;;
80384;SDS011;69702;44.618;33.604;2023-05-07T13:56:19;6.57;;;4.80;;
80384;SDS011;69702;44.618;33.604;2023-05-07T13:58:46;6.57;;;4.93;;
80384;SDS011;69702;44.618;33.604;2023-05-07T14:01:12;5.47;;;4.03;;
80384;SDS011;69702;44.618;33.604;2023-05-07T14:03:38;5.80;;;4.57;;
80384;SDS011;69702;44.618;33.604;2023-05-07T14:06:05;7.88;;;5.88;;
80384;SDS011;69702;44.618;33.604;2023-05-07T14:08:31;7.90;;;4.97;;
80384;SDS011;69702;44.618;33.604;2023-05-07T14:10:57;7.03;;;4.30;;
80384;SDS011;69702;44.618;33.604;2023-05-07T14:13:23;6.13;;;4.00;;
80384;SDS011;69702;44.618;33.604;2023-05-07T14:15:48;6.38;;;3.65;;
80384;SDS011;69702;44.618;33.604;2023-05-07T14:18:15;11.55;;;7.28;;
80384;SDS011;69702;44.618;33.604;2023-05-07T14:20:41;8.00;;;4.82;;
80384;SDS011;69702;44.618;33.604;2023-05-07T14:23:11;5.78;;;3.80;;
80384;SDS011;69702;44.618;33.604;2023-05-07T14:25:37;6.20;;;3.97;;
80384;SDS011;69702;44.618;33.604;2023-05-07T14:28:03;6.72;;;3.78;;
80384;SDS011;69702;44.618;33.604;2023-05-07T14:30:29;6.30;;;3.93;;
80384;SDS011;69702;44.618;33.604;2023-05-07T14:32:55;5.30;;;3.35;;
80384;SDS011;69702;44.618;33.604;2023-05-07T14:35:21;6.30;;;4.40;;
80384;SDS011;69702;44.618;33.604;2023-05-07T14:37:47;10.32;;;6.20;;
80384;SDS011;69702;44.618;33.604;2023-05-07T14:40:13;6.87;;;4.00;;
80384;SDS011;69702;44.618;33.604;2023-05-07T14:42:41;5.45;;;3.47;;
80384;SDS011;69702;44.618;33.604;2023-05-07T14:45:07;8.43;;;5.20;;
80384;SDS011;69702;44.618;33.604;2023-05-07T14:47:33;7.78;;;4.80;;
80384;SDS011;69702;44.618;33.604;2023-05-07T14:50:00;8.90;;;5.50;;